El Cerillo Vista Hermosa, Mexico

2:50 AM CDT on September 04, 2015 (GMT -0500)
colonia libertad | | Change Station
CLOSE
Current Station
Personal Weather Station
Location: Santa Cruz Atizapán, ESTADO DE MéXICO
Elevation: 8465 ft
Nearby Weather Stations

Elev 8465 ft 19.19 °N, 99.50 °W | Updated 13 seconds ago

Partly Cloudy
Partly Cloudy
54.9 °F
Feels Like 54.9 °F
N
2.0
Wind Variable Wind from South
Gusts 2.5 mph

Today
High -- | Low -- °F
--% Chance of Precip.
Yesterday
High -- | Low -- °F
Precip. -- in
7:23 AM 7:50 PM
Waning Gibbous, 62% visible
Pressure 30.28 in
Visibility 6.0 miles
Clouds Few 8000 ft
Dew Point 41 °F
Humidity 59%
Rainfall 0.00 in
Snow Depth Not available.
UV 0.0 out of 12
Pollen Not available.
Air Quality Not available.
Flu Activity Not available.
METAR MMMX 040644Z 06002KT 6SM FEW080 15/13 A3028 NOSIG RMK 8/030 HZY
Pressure 30.28 in
Visibility 6.0 miles
Clouds Few 8000 ft
Dew Point 41 °F
Humidity 59%
Rainfall 0.00 in
Snow Depth Not available.
UV 0.0 out of 12
Pollen Not available.
Air Quality Not available.
Flu Activity Not available.
METAR MMMX 040644Z 06002KT 6SM FEW080 15/13 A3028 NOSIG RMK 8/030 HZY

10-Day Weather Forecast

×

Almanac

Astronomy

Sep. 04, 2015 Rise Set
Actual Time
Civil Twilight
Nautical Twilight
Astronomical Twilight
Moon
Length of Visible Light
Length of Day
Tomorrow will be .
, % of the Moon is Illuminated

Today's Extremes

Country Highs Country Lows

Community

WunderPhotos

Upload Photos

1,852,132 photos uploaded!

WunderBlogs® & News

Nearby

Air Quality

  Air Quality AQ Index Pollutant
Not available.

Snow Depth

Station Depth Elevation

Earthquake Activity

City Distance Mag. Time & Date
Minimum magnitude displayed is 2.5.

Coastal Water Temperatures

Place Temperature

Stations

Nearby Weather Stations

Station Location Temp. Windchill Dew Point Humidity Wind Precip. Elev Updated Type